sensor_id;sensor_type;location;lat;lon;timestamp;pressure;altitude;pressure_sealevel;temperature;humidity
24234;BME280;12365;43.554;1.388;2023-11-19T00:01:07;100644.53;;;11.97;62.02
24234;BME280;12365;43.554;1.388;2023-11-19T00:03:33;100644.53;;;11.97;61.98
24234;BME280;12365;43.554;1.388;2023-11-19T00:05:59;100649.59;;;11.94;62.05
24234;BME280;12365;43.554;1.388;2023-11-19T00:08:24;100642.59;;;11.93;62.05
24234;BME280;12365;43.554;1.388;2023-11-19T00:10:50;100645.00;;;11.90;61.92
24234;BME280;12365;43.554;1.388;2023-11-19T00:13:16;100647.44;;;11.87;62.09
24234;BME280;12365;43.554;1.388;2023-11-19T00:15:41;100649.19;;;11.86;62.16
24234;BME280;12365;43.554;1.388;2023-11-19T00:18:07;100647.44;;;11.87;61.99
24234;BME280;12365;43.554;1.388;2023-11-19T00:20:32;100648.16;;;11.84;61.96
24234;BME280;12365;43.554;1.388;2023-11-19T00:22:58;100641.94;;;11.82;62.21
24234;BME280;12365;43.554;1.388;2023-11-19T00:25:23;100644.47;;;11.81;62.00
24234;BME280;12365;43.554;1.388;2023-11-19T00:27:49;100641.69;;;11.78;62.06
24234;BME280;12365;43.554;1.388;2023-11-19T00:30:16;100644.09;;;11.75;62.24
24234;BME280;12365;43.554;1.388;2023-11-19T00:32:42;100638.97;;;11.76;62.34
24234;BME280;12365;43.554;1.388;2023-11-19T00:35:08;100633.47;;;11.71;62.17
24234;BME280;12365;43.554;1.388;2023-11-19T00:37:35;100636.91;;;11.70;62.16
24234;BME280;12365;43.554;1.388;2023-11-19T00:40:01;100630.69;;;11.68;62.20
24234;BME280;12365;43.554;1.388;2023-11-19T00:42:30;100627.19;;;11.68;62.10
24234;BME280;12365;43.554;1.388;2023-11-19T00:44:56;100620.88;;;11.64;62.32
24234;BME280;12365;43.554;1.388;2023-11-19T00:47:21;100622.53;;;11.62;62.26
24234;BME280;12365;43.554;1.388;2023-11-19T00:49:47;100617.09;;;11.59;62.34
24234;BME280;12365;43.554;1.388;2023-11-19T00:52:16;100616.03;;;11.56;62.14
24234;BME280;12365;43.554;1.388;2023-11-19T00:54:42;100620.19;;;11.52;62.15
24234;BME280;12365;43.554;1.388;2023-11-19T00:57:08;100620.09;;;11.50;62.16
24234;BME280;12365;43.554;1.388;2023-11-19T00:59:33;100622.59;;;11.49;62.23
24234;BME280;12365;43.554;1.388;2023-11-19T01:01:58;100616.41;;;11.47;62.37
24234;BME280;12365;43.554;1.388;2023-11-19T01:04:29;100619.09;;;11.48;62.53
24234;BME280;12365;43.554;1.388;2023-11-19T01:06:54;100616.41;;;11.47;62.53
24234;BME280;12365;43.554;1.388;2023-11-19T01:09:19;100611.19;;;11.47;62.65
24234;BME280;12365;43.554;1.388;2023-11-19T01:11:45;100618.19;;;11.48;62.49
24234;BME280;12365;43.554;1.388;2023-11-19T01:14:10;100619.81;;;11.46;62.42
24234;BME280;12365;43.554;1.388;2023-11-19T01:16:35;100630.28;;;11.46;62.39
24234;BME280;12365;43.554;1.388;2023-11-19T01:19:01;100629.38;;;11.45;62.57
24234;BME280;12365;43.554;1.388;2023-11-19T01:21:30;100631.16;;;11.46;62.55
24234;BME280;12365;43.554;1.388;2023-11-19T01:23:56;100632.81;;;11.44;62.63
24234;BME280;12365;43.554;1.388;2023-11-19T01:26:22;100634.44;;;11.42;62.60
24234;BME280;12365;43.554;1.388;2023-11-19T01:28:47;100640.44;;;11.41;62.58
24234;BME280;12365;43.554;1.388;2023-11-19T01:31:16;100635.22;;;11.41;62.93
24234;BME280;12365;43.554;1.388;2023-11-19T01:33:41;100643.88;;;11.40;62.68
24234;BME280;12365;43.554;1.388;2023-11-19T01:36:07;100643.97;;;11.42;62.74
24234;BME280;12365;43.554;1.388;2023-11-19T01:38:34;100636.94;;;11.41;62.59
24234;BME280;12365;43.554;1.388;2023-11-19T01:40:59;100637.66;;;11.38;62.74
24234;BME280;12365;43.554;1.388;2023-11-19T01:43:35;100640.19;;;11.37;63.08
24234;BME280;12365;43.554;1.388;2023-11-19T01:46:02;100639.22;;;11.35;62.91
24234;BME280;12365;43.554;1.388;2023-11-19T01:48:34;100643.44;;;11.33;62.87
24234;BME280;12365;43.554;1.388;2023-11-19T01:51:02;100644.34;;;11.33;62.65
24234;BME280;12365;43.554;1.388;2023-11-19T01:53:29;100650.44;;;11.34;62.73
24234;BME280;12365;43.554;1.388;2023-11-19T01:55:56;100652.06;;;11.32;63.04
24234;BME280;12365;43.554;1.388;2023-11-19T01:58:22;100648.50;;;11.30;62.74
24234;BME280;12365;43.554;1.388;2023-11-19T02:00:48;100638.47;;;11.22;63.05
24234;BME280;12365;43.554;1.388;2023-11-19T02:03:14;100641.09;;;11.22;62.98
24234;BME280;12365;43.554;1.388;2023-11-19T02:05:39;100640.00;;;11.19;62.79
24234;BME280;12365;43.554;1.388;2023-11-19T02:08:05;100641.63;;;11.17;63.02
24234;BME280;12365;43.554;1.388;2023-11-19T02:10:30;100641.25;;;11.11;63.20
24234;BME280;12365;43.554;1.388;2023-11-19T02:12:57;100640.09;;;11.05;63.22
24234;BME280;12365;43.554;1.388;2023-11-19T02:15:23;100638.28;;;11.04;63.12
24234;BME280;12365;43.554;1.388;2023-11-19T02:17:50;100639.09;;;11.03;63.20
24234;BME280;12365;43.554;1.388;2023-11-19T02:20:16;100636.41;;;11.02;63.14
24234;BME280;12365;43.554;1.388;2023-11-19T02:22:41;100636.41;;;11.02;63.24
24234;BME280;12365;43.554;1.388;2023-11-19T02:25:07;100633.63;;;10.99;62.94
24234;BME280;12365;43.554;1.388;2023-11-19T02:30:04;100641.06;;;10.93;63.20
24234;BME280;12365;43.554;1.388;2023-11-19T02:32:31;100632.22;;;10.91;63.24
24234;BME280;12365;43.554;1.388;2023-11-19T02:34:56;100639.06;;;10.89;63.25
24234;BME280;12365;43.554;1.388;2023-11-19T02:37:22;100634.78;;;10.89;63.14
24234;BME280;12365;43.554;1.388;2023-11-19T02:39:47;100630.44;;;10.90;63.11
24234;BME280;12365;43.554;1.388;2023-11-19T02:42:12;100629.53;;;10.89;63.30
24234;BME280;12365;43.554;1.388;2023-11-19T02:44:38;100629.44;;;10.88;63.21
24234;BME280;12365;43.554;1.388;2023-11-19T02:47:05;100633.66;;;10.85;63.21
24234;BME280;12365;43.554;1.388;2023-11-19T02:49:33;100629.16;;;10.83;63.42
24234;BME280;12365;43.554;1.388;2023-11-19T02:51:58;100623.03;;;10.82;63.11
24234;BME280;12365;43.554;1.388;2023-11-19T02:54:24;100630.59;;;10.78;63.34
24234;BME280;12365;43.554;1.388;2023-11-19T02:56:52;100628.78;;;10.77;63.26
24234;BME280;12365;43.554;1.388;2023-11-19T02:59:21;100627.78;;;10.75;63.40
24234;BME280;12365;43.554;1.388;2023-11-19T03:01:53;100618.97;;;10.73;63.39
24234;BME280;12365;43.554;1.388;2023-11-19T03:04:19;100622.41;;;10.72;63.46
24234;BME280;12365;43.554;1.388;2023-11-19T03:06:45;100621.50;;;10.71;63.18
24234;BME280;12365;43.554;1.388;2023-11-19T03:09:11;100622.28;;;10.70;63.33
24234;BME280;12365;43.554;1.388;2023-11-19T03:11:36;100619.69;;;10.70;63.46
24234;BME280;12365;43.554;1.388;2023-11-19T03:14:02;100614.56;;;10.72;63.18
24234;BME280;12365;43.554;1.388;2023-11-19T03:16:30;100611.06;;;10.71;63.53
24234;BME280;12365;43.554;1.388;2023-11-19T03:18:56;100620.69;;;10.72;63.62
24234;BME280;12365;43.554;1.388;2023-11-19T03:21:31;100615.47;;;10.72;63.40
24234;BME280;12365;43.554;1.388;2023-11-19T03:23:57;100609.16;;;10.69;63.35
24234;BME280;12365;43.554;1.388;2023-11-19T03:26:26;100608.06;;;10.65;63.31
24234;BME280;12365;43.554;1.388;2023-11-19T03:28:52;100607.88;;;10.62;63.28
24234;BME280;12365;43.554;1.388;2023-11-19T03:31:18;100601.66;;;10.60;63.47
24234;BME280;12365;43.554;1.388;2023-11-19T03:33:44;100605.88;;;10.58;63.45
24234;BME280;12365;43.554;1.388;2023-11-19T03:36:10;100613.63;;;10.56;63.56
24234;BME280;12365;43.554;1.388;2023-11-19T03:38:35;100614.34;;;10.54;63.35
24234;BME280;12365;43.554;1.388;2023-11-19T03:41:14;100606.22;;;10.49;63.53
24234;BME280;12365;43.554;1.388;2023-11-19T03:43:40;100606.94;;;10.47;63.59
24234;BME280;12365;43.554;1.388;2023-11-19T03:46:19;100606.06;;;10.46;63.42
24234;BME280;12365;43.554;1.388;2023-11-19T03:48:46;100607.72;;;10.46;63.51
24234;BME280;12365;43.554;1.388;2023-11-19T03:51:12;100602.34;;;10.43;63.44
24234;BME280;12365;43.554;1.388;2023-11-19T03:53:42;100612.88;;;10.44;63.57
24234;BME280;12365;43.554;1.388;2023-11-19T03:56:07;100603.16;;;10.41;63.63
24234;BME280;12365;43.554;1.388;2023-11-19T03:58:34;100608.97;;;10.37;63.44
24234;BME280;12365;43.554;1.388;2023-11-19T04:01:00;100606.38;;;10.37;63.80
24234;BME280;12365;43.554;1.388;2023-11-19T04:03:26;100597.34;;;10.32;63.70
24234;BME280;12365;43.554;1.388;2023-11-19T04:05:51;100603.47;;;10.33;63.78
24234;BME280;12365;43.554;1.388;2023-11-19T04:08:17;100604.41;;;10.33;63.77
24234;BME280;12365;43.554;1.388;2023-11-19T04:10:42;100610.50;;;10.34;63.68
24234;BME280;12365;43.554;1.388;2023-11-19T04:13:07;100607.91;;;10.34;63.73
24234;BME280;12365;43.554;1.388;2023-11-19T04:15:33;100613.13;;;10.34;63.51
24234;BME280;12365;43.554;1.388;2023-11-19T04:17:58;100614.13;;;10.36;63.55
24234;BME280;12365;43.554;1.388;2023-11-19T04:20:23;100607.97;;;10.35;63.64
24234;BME280;12365;43.554;1.388;2023-11-19T04:22:50;100618.63;;;10.38;63.36
24234;BME280;12365;43.554;1.388;2023-11-19T04:25:16;100613.47;;;10.40;63.67
24234;BME280;12365;43.554;1.388;2023-11-19T04:27:41;100616.09;;;10.40;63.89
24234;BME280;12365;43.554;1.388;2023-11-19T04:30:07;100623.13;;;10.41;63.68
24234;BME280;12365;43.554;1.388;2023-11-19T04:32:35;100617.91;;;10.41;63.63
24234;BME280;12365;43.554;1.388;2023-11-19T04:35:00;100621.22;;;10.38;63.87
24234;BME280;12365;43.554;1.388;2023-11-19T04:37:26;100614.31;;;10.39;63.56
24234;BME280;12365;43.554;1.388;2023-11-19T04:39:51;100615.19;;;10.39;63.62
24234;BME280;12365;43.554;1.388;2023-11-19T04:42:16;100607.38;;;10.39;63.80
24234;BME280;12365;43.554;1.388;2023-11-19T04:44:43;100601.25;;;10.39;63.95
24234;BME280;12365;43.554;1.388;2023-11-19T04:47:08;100608.19;;;10.38;64.11
24234;BME280;12365;43.554;1.388;2023-11-19T04:49:40;100608.19;;;10.38;63.69
24234;BME280;12365;43.554;1.388;2023-11-19T04:52:07;100611.75;;;10.40;63.91
24234;BME280;12365;43.554;1.388;2023-11-19T04:54:33;100613.59;;;10.41;64.07
24234;BME280;12365;43.554;1.388;2023-11-19T04:56:58;100611.06;;;10.43;63.95
24234;BME280;12365;43.554;1.388;2023-11-19T04:59:24;100608.56;;;10.45;64.10
24234;BME280;12365;43.554;1.388;2023-11-19T05:01:49;100614.78;;;10.47;63.92
24234;BME280;12365;43.554;1.388;2023-11-19T05:04:15;100613.94;;;10.48;64.21
24234;BME280;12365;43.554;1.388;2023-11-19T05:06:41;100629.59;;;10.48;64.10
24234;BME280;12365;43.554;1.388;2023-11-19T05:09:06;100629.59;;;10.48;64.15
24234;BME280;12365;43.554;1.388;2023-11-19T05:11:37;100623.59;;;10.49;63.86
24234;BME280;12365;43.554;1.388;2023-11-19T05:14:03;100625.38;;;10.50;64.30
24234;BME280;12365;43.554;1.388;2023-11-19T05:16:29;100626.22;;;10.49;64.25
24234;BME280;12365;43.554;1.388;2023-11-19T05:18:55;100623.59;;;10.49;64.15
24234;BME280;12365;43.554;1.388;2023-11-19T05:21:20;100621.00;;;10.49;64.17
24234;BME280;12365;43.554;1.388;2023-11-19T05:23:45;100631.31;;;10.47;64.08
24234;BME280;12365;43.554;1.388;2023-11-19T05:26:22;100628.59;;;10.46;64.49
24234;BME280;12365;43.554;1.388;2023-11-19T05:28:47;100623.31;;;10.44;64.47
24234;BME280;12365;43.554;1.388;2023-11-19T05:31:13;100627.41;;;10.40;64.29
24234;BME280;12365;43.554;1.388;2023-11-19T05:33:39;100629.84;;;10.37;64.31
24234;BME280;12365;43.554;1.388;2023-11-19T05:36:05;100626.16;;;10.34;64.32
24234;BME280;12365;43.554;1.388;2023-11-19T05:38:30;100626.16;;;10.34;64.42
24234;BME280;12365;43.554;1.388;2023-11-19T05:40:56;100633.09;;;10.33;64.46
24234;BME280;12365;43.554;1.388;2023-11-19T05:43:21;100625.75;;;10.28;64.58
24234;BME280;12365;43.554;1.388;2023-11-19T05:45:47;100622.03;;;10.24;64.56
24234;BME280;12365;43.554;1.388;2023-11-19T05:48:12;100621.03;;;10.22;64.44
24234;BME280;12365;43.554;1.388;2023-11-19T05:50:38;100616.53;;;10.19;64.57
24234;BME280;12365;43.554;1.388;2023-11-19T05:53:04;100614.53;;;10.15;64.34
24234;BME280;12365;43.554;1.388;2023-11-19T05:55:36;100612.53;;;10.11;64.80
24234;BME280;12365;43.554;1.388;2023-11-19T05:58:02;100609.81;;;10.10;64.54
24234;BME280;12365;43.554;1.388;2023-11-19T06:00:29;100617.56;;;10.08;64.47
24234;BME280;12365;43.554;1.388;2023-11-19T06:02:55;100621.88;;;10.08;64.74
24234;BME280;12365;43.554;1.388;2023-11-19T06:05:21;100617.47;;;10.07;64.82
24234;BME280;12365;43.554;1.388;2023-11-19T06:07:46;100628.78;;;10.07;64.58
24234;BME280;12365;43.554;1.388;2023-11-19T06:10:11;100621.97;;;10.09;64.85
24234;BME280;12365;43.554;1.388;2023-11-19T06:12:39;100626.38;;;10.10;64.98
24234;BME280;12365;43.554;1.388;2023-11-19T06:15:07;100621.88;;;10.08;64.83
24234;BME280;12365;43.554;1.388;2023-11-19T06:17:34;100627.09;;;10.08;64.82
24234;BME280;12365;43.554;1.388;2023-11-19T06:19:59;100628.88;;;10.09;64.95
24234;BME280;12365;43.554;1.388;2023-11-19T06:22:24;100628.88;;;10.09;64.73
24234;BME280;12365;43.554;1.388;2023-11-19T06:24:50;100640.03;;;10.06;64.66
24234;BME280;12365;43.554;1.388;2023-11-19T06:27:15;100640.13;;;10.08;64.89
24234;BME280;12365;43.554;1.388;2023-11-19T06:29:41;100652.16;;;10.06;64.63
24234;BME280;12365;43.554;1.388;2023-11-19T06:32:06;100656.38;;;10.04;64.85
24234;BME280;12365;43.554;1.388;2023-11-19T06:34:33;100655.47;;;10.03;64.72
24234;BME280;12365;43.554;1.388;2023-11-19T06:36:59;100655.38;;;10.02;64.66
24234;BME280;12365;43.554;1.388;2023-11-19T06:39:24;100660.47;;;10.00;64.68
24234;BME280;12365;43.554;1.388;2023-11-19T06:41:50;100655.97;;;9.97;65.06
24234;BME280;12365;43.554;1.388;2023-11-19T06:44:15;100655.97;;;9.97;64.84
24234;BME280;12365;43.554;1.388;2023-11-19T06:46:41;100660.09;;;9.94;64.83
24234;BME280;12365;43.554;1.388;2023-11-19T06:49:06;100674.91;;;9.95;65.00
24234;BME280;12365;43.554;1.388;2023-11-19T06:51:33;100666.19;;;9.94;64.80
24234;BME280;12365;43.554;1.388;2023-11-19T06:53:59;100675.72;;;9.94;64.68
24234;BME280;12365;43.554;1.388;2023-11-19T06:56:25;100677.31;;;9.92;64.81
24234;BME280;12365;43.554;1.388;2023-11-19T06:58:51;100677.03;;;9.87;64.89
24234;BME280;12365;43.554;1.388;2023-11-19T07:01:17;100674.22;;;9.84;65.18
24234;BME280;12365;43.554;1.388;2023-11-19T07:03:47;100679.25;;;9.81;65.08
24234;BME280;12365;43.554;1.388;2023-11-19T07:06:13;100690.56;;;9.82;64.88
24234;BME280;12365;43.554;1.388;2023-11-19T07:08:41;100690.56;;;9.82;64.97
24234;BME280;12365;43.554;1.388;2023-11-19T07:11:06;100689.66;;;9.81;64.74
24234;BME280;12365;43.554;1.388;2023-11-19T07:13:31;100702.59;;;9.80;64.93
24234;BME280;12365;43.554;1.388;2023-11-19T07:15:57;100692.06;;;9.78;65.11
24234;BME280;12365;43.554;1.388;2023-11-19T07:18:23;100693.88;;;9.79;65.23
24234;BME280;12365;43.554;1.388;2023-11-19T07:20:49;100696.47;;;9.79;64.89
24234;BME280;12365;43.554;1.388;2023-11-19T07:23:14;100696.59;;;9.81;64.99
24234;BME280;12365;43.554;1.388;2023-11-19T07:25:43;100690.69;;;9.83;65.18
24234;BME280;12365;43.554;1.388;2023-11-19T07:28:12;100704.00;;;9.88;64.85
24234;BME280;12365;43.554;1.388;2023-11-19T07:30:37;100695.69;;;9.93;65.15
24234;BME280;12365;43.554;1.388;2023-11-19T07:33:03;100696.06;;;9.99;65.18
24234;BME280;12365;43.554;1.388;2023-11-19T07:35:29;100690.38;;;10.05;65.07
24234;BME280;12365;43.554;1.388;2023-11-19T07:37:58;100693.66;;;10.16;64.88
24234;BME280;12365;43.554;1.388;2023-11-19T07:40:24;100697.78;;;10.26;65.01
24234;BME280;12365;43.554;1.388;2023-11-19T07:42:50;100702.28;;;10.41;64.82
24234;BME280;12365;43.554;1.388;2023-11-19T07:45:16;100701.22;;;10.53;64.95
24234;BME280;12365;43.554;1.388;2023-11-19T07:47:42;100698.63;;;10.66;64.39
24234;BME280;12365;43.554;1.388;2023-11-19T07:50:10;100706.28;;;10.78;64.39
24234;BME280;12365;43.554;1.388;2023-11-19T07:52:36;100717.59;;;10.92;64.57
24234;BME280;12365;43.554;1.388;2023-11-19T07:55:02;100708.09;;;11.07;64.44
24234;BME280;12365;43.554;1.388;2023-11-19T07:57:27;100703.69;;;11.21;64.07
24234;BME280;12365;43.554;1.388;2023-11-19T07:59:56;100701.09;;;11.36;64.09
24234;BME280;12365;43.554;1.388;2023-11-19T08:02:21;100708.84;;;11.49;64.21
24234;BME280;12365;43.554;1.388;2023-11-19T08:04:48;100716.63;;;11.62;64.02
24234;BME280;12365;43.554;1.388;2023-11-19T08:07:16;100724.34;;;11.76;63.66
24234;BME280;12365;43.554;1.388;2023-11-19T08:09:42;100716.22;;;11.86;63.72
24234;BME280;12365;43.554;1.388;2023-11-19T08:12:08;100712.47;;;11.96;63.69
24234;BME280;12365;43.554;1.388;2023-11-19T08:14:34;100716.41;;;12.04;63.68
24234;BME280;12365;43.554;1.388;2023-11-19T08:17:00;100715.22;;;12.13;63.45
24234;BME280;12365;43.554;1.388;2023-11-19T08:19:26;100724.41;;;12.22;63.49
24234;BME280;12365;43.554;1.388;2023-11-19T08:21:51;100725.91;;;12.33;63.39
24234;BME280;12365;43.554;1.388;2023-11-19T08:24:16;100720.47;;;12.45;63.30
24234;BME280;12365;43.554;1.388;2023-11-19T08:26:42;100716.47;;;12.51;63.20
24234;BME280;12365;43.554;1.388;2023-11-19T08:29:08;100725.66;;;12.60;63.05
24234;BME280;12365;43.554;1.388;2023-11-19T08:31:34;100731.41;;;12.69;63.02
24234;BME280;12365;43.554;1.388;2023-11-19T08:34:00;100731.88;;;12.78;62.96
24234;BME280;12365;43.554;1.388;2023-11-19T08:36:26;100729.78;;;12.87;62.92
24234;BME280;12365;43.554;1.388;2023-11-19T08:38:53;100730.91;;;12.92;62.87
24234;BME280;12365;43.554;1.388;2023-11-19T08:41:18;100737.41;;;12.99;62.84
24234;BME280;12365;43.554;1.388;2023-11-19T08:43:44;100730.75;;;13.06;62.66
24234;BME280;12365;43.554;1.388;2023-11-19T08:46:10;100729.44;;;13.14;62.72
24234;BME280;12365;43.554;1.388;2023-11-19T08:48:36;100735.16;;;13.23;62.87
24234;BME280;12365;43.554;1.388;2023-11-19T08:51:01;100732.22;;;13.33;62.77
24234;BME280;12365;43.554;1.388;2023-11-19T08:53:26;100728.22;;;13.40;62.61
24234;BME280;12365;43.554;1.388;2023-11-19T08:55:52;100735.50;;;13.46;62.52
24234;BME280;12365;43.554;1.388;2023-11-19T08:58:17;100729.81;;;13.54;62.67
24234;BME280;12365;43.554;1.388;2023-11-19T09:00:43;100730.19;;;13.62;62.40
24234;BME280;12365;43.554;1.388;2023-11-19T09:03:09;100736.59;;;13.67;62.38
24234;BME280;12365;43.554;1.388;2023-11-19T09:05:34;100734.19;;;13.72;62.43
24234;BME280;12365;43.554;1.388;2023-11-19T09:07:59;100739.03;;;13.80;62.38
24234;BME280;12365;43.554;1.388;2023-11-19T09:10:25;100735.06;;;13.88;62.32
24234;BME280;12365;43.554;1.388;2023-11-19T09:12:52;100731.97;;;13.97;62.17
24234;BME280;12365;43.554;1.388;2023-11-19T09:15:17;100735.91;;;14.05;62.31
24234;BME280;12365;43.554;1.388;2023-11-19T09:17:42;100732.16;;;14.18;62.19
24234;BME280;12365;43.554;1.388;2023-11-19T09:20:08;100738.00;;;14.30;62.12
24234;BME280;12365;43.554;1.388;2023-11-19T09:22:37;100736.63;;;14.39;61.94
24234;BME280;12365;43.554;1.388;2023-11-19T09:25:02;100737.06;;;14.48;61.89
24234;BME280;12365;43.554;1.388;2023-11-19T09:27:28;100728.69;;;14.55;61.74
24234;BME280;12365;43.554;1.388;2023-11-19T09:29:54;100727.31;;;14.63;61.93
24234;BME280;12365;43.554;1.388;2023-11-19T09:32:22;100731.28;;;14.73;61.69
24234;BME280;12365;43.554;1.388;2023-11-19T09:34:48;100728.19;;;14.82;61.59
24234;BME280;12365;43.554;1.388;2023-11-19T09:37:13;100715.41;;;14.89;61.58
24234;BME280;12365;43.554;1.388;2023-11-19T09:39:38;100724.66;;;15.01;61.60
24234;BME280;12365;43.554;1.388;2023-11-19T09:42:05;100722.38;;;15.08;61.32
24234;BME280;12365;43.554;1.388;2023-11-19T09:44:32;100726.25;;;15.16;61.37
24234;BME280;12365;43.554;1.388;2023-11-19T09:46:58;100729.19;;;15.24;61.33
24234;BME280;12365;43.554;1.388;2023-11-19T09:49:25;100733.22;;;15.35;61.42
24234;BME280;12365;43.554;1.388;2023-11-19T09:51:51;100734.53;;;15.45;61.23
24234;BME280;12365;43.554;1.388;2023-11-19T09:54:17;100722.72;;;15.56;61.20
24234;BME280;12365;43.554;1.388;2023-11-19T09:56:43;100730.19;;;15.67;61.09
24234;BME280;12365;43.554;1.388;2023-11-19T09:59:08;100730.63;;;15.76;60.93
24234;BME280;12365;43.554;1.388;2023-11-19T10:01:37;100727.41;;;15.83;60.77
24234;BME280;12365;43.554;1.388;2023-11-19T10:04:03;100731.25;;;15.91;61.00
24234;BME280;12365;43.554;1.388;2023-11-19T10:06:28;100725.53;;;16.01;60.84
24234;BME280;12365;43.554;1.388;2023-11-19T10:08:54;100724.31;;;16.14;60.77
24234;BME280;12365;43.554;1.388;2023-11-19T10:11:20;100715.16;;;16.27;60.80
24234;BME280;12365;43.554;1.388;2023-11-19T10:13:46;100715.53;;;16.36;60.61
24234;BME280;12365;43.554;1.388;2023-11-19T10:16:13;100712.47;;;16.48;60.47
24234;BME280;12365;43.554;1.388;2023-11-19T10:18:46;100710.28;;;16.59;60.37
24234;BME280;12365;43.554;1.388;2023-11-19T10:21:13;100701.75;;;16.66;60.21
24234;BME280;12365;43.554;1.388;2023-11-19T10:23:53;100701.34;;;16.78;60.36
24234;BME280;12365;43.554;1.388;2023-11-19T10:26:19;100697.41;;;16.89;60.09
24234;BME280;12365;43.554;1.388;2023-11-19T10:28:49;100701.50;;;17.05;60.02
24234;BME280;12365;43.554;1.388;2023-11-19T10:31:18;100694.84;;;17.16;59.97
24234;BME280;12365;43.554;1.388;2023-11-19T10:33:44;100695.13;;;17.24;59.63
24234;BME280;12365;43.554;1.388;2023-11-19T10:36:11;100696.34;;;17.33;59.68
24234;BME280;12365;43.554;1.388;2023-11-19T10:38:38;100688.78;;;17.43;59.67
24234;BME280;12365;43.554;1.388;2023-11-19T10:41:04;100683.78;;;17.52;59.54
24234;BME280;12365;43.554;1.388;2023-11-19T10:43:30;100687.66;;;17.62;59.38
24234;BME280;12365;43.554;1.388;2023-11-19T10:46:16;100680.13;;;17.72;59.47
24234;BME280;12365;43.554;1.388;2023-11-19T10:48:46;100687.53;;;17.83;59.14
24234;BME280;12365;43.554;1.388;2023-11-19T10:51:13;100684.53;;;17.99;59.00
24234;BME280;12365;43.554;1.388;2023-11-19T10:53:46;100678.91;;;18.15;58.75
24234;BME280;12365;43.554;1.388;2023-11-19T10:56:13;100671.34;;;18.28;58.51
24234;BME280;12365;43.554;1.388;2023-11-19T10:58:44;100679.72;;;18.41;58.60
24234;BME280;12365;43.554;1.388;2023-11-19T11:01:17;100675.56;;;18.50;58.37
24234;BME280;12365;43.554;1.388;2023-11-19T11:03:46;100675.78;;;18.57;58.18
24234;BME280;12365;43.554;1.388;2023-11-19T11:06:13;100673.44;;;18.67;58.19
24234;BME280;12365;43.554;1.388;2023-11-19T11:08:39;100661.41;;;18.76;58.08
24234;BME280;12365;43.554;1.388;2023-11-19T11:11:05;100661.72;;;18.87;57.63
24234;BME280;12365;43.554;1.388;2023-11-19T11:13:33;100661.97;;;18.96;57.51
24234;BME280;12365;43.554;1.388;2023-11-19T11:15:59;100652.44;;;19.03;57.44
24234;BME280;12365;43.554;1.388;2023-11-19T11:18:25;100657.97;;;19.11;57.30
24234;BME280;12365;43.554;1.388;2023-11-19T11:20:55;100652.94;;;19.20;57.35
24234;BME280;12365;43.554;1.388;2023-11-19T11:29:03;100644.44;;;19.33;57.09
24234;BME280;12365;43.554;1.388;2023-11-19T11:37:19;100634.50;;;19.58;56.51
24234;BME280;12365;43.554;1.388;2023-11-19T11:39:46;100640.03;;;19.67;56.52
24234;BME280;12365;43.554;1.388;2023-11-19T11:45:08;100624.31;;;19.73;56.45
24234;BME280;12365;43.554;1.388;2023-11-19T11:50:13;100618.47;;;19.86;55.94
24234;BME280;12365;43.554;1.388;2023-11-19T11:55:26;100607.22;;;19.97;55.88
24234;BME280;12365;43.554;1.388;2023-11-19T11:57:51;100602.09;;;20.03;55.82
24234;BME280;12365;43.554;1.388;2023-11-19T12:00:27;100596.91;;;20.09;55.52
24234;BME280;12365;43.554;1.388;2023-11-19T12:03:01;100590.88;;;20.16;55.22
24234;BME280;12365;43.554;1.388;2023-11-19T12:05:28;100580.38;;;20.21;55.18
24234;BME280;12365;43.554;1.388;2023-11-19T12:08:02;100591.88;;;20.21;54.96
24234;BME280;12365;43.554;1.388;2023-11-19T12:10:30;100585.75;;;20.24;55.17
24234;BME280;12365;43.554;1.388;2023-11-19T12:12:59;100583.22;;;20.28;54.96
24234;BME280;12365;43.554;1.388;2023-11-19T12:15:25;100581.47;;;20.30;54.79
24234;BME280;12365;43.554;1.388;2023-11-19T12:17:53;100581.47;;;20.30;55.02
24234;BME280;12365;43.554;1.388;2023-11-19T12:20:33;100570.94;;;20.33;54.78
24234;BME280;12365;43.554;1.388;2023-11-19T12:23:04;100578.03;;;20.34;54.54
24234;BME280;12365;43.554;1.388;2023-11-19T12:25:34;100571.00;;;20.37;54.64
24234;BME280;12365;43.554;1.388;2023-11-19T12:28:00;100567.53;;;20.39;54.64
24234;BME280;12365;43.554;1.388;2023-11-19T12:30:29;100561.38;;;20.42;54.47
24234;BME280;12365;43.554;1.388;2023-11-19T12:32:55;100564.09;;;20.45;54.32
24234;BME280;12365;43.554;1.388;2023-11-19T12:35:20;100562.38;;;20.47;54.37
24234;BME280;12365;43.554;1.388;2023-11-19T12:37:47;100561.50;;;20.46;54.31
24234;BME280;12365;43.554;1.388;2023-11-19T12:40:20;100561.50;;;20.48;53.99
24234;BME280;12365;43.554;1.388;2023-11-19T12:42:50;100564.19;;;20.49;53.83
24234;BME280;12365;43.554;1.388;2023-11-19T12:45:16;100555.41;;;20.52;53.80
24234;BME280;12365;43.554;1.388;2023-11-19T12:47:45;100558.09;;;20.53;54.02
24234;BME280;12365;43.554;1.388;2023-11-19T12:50:13;100554.47;;;20.50;53.78
24234;BME280;12365;43.554;1.388;2023-11-19T12:52:39;100556.19;;;20.46;53.84
24234;BME280;12365;43.554;1.388;2023-11-19T12:55:05;100557.03;;;20.44;53.87
24234;BME280;12365;43.554;1.388;2023-11-19T12:57:49;100550.84;;;20.45;53.51
24234;BME280;12365;43.554;1.388;2023-11-19T13:00:24;100552.59;;;20.44;53.62
24234;BME280;12365;43.554;1.388;2023-11-19T13:02:51;100541.03;;;20.41;53.24
24234;BME280;12365;43.554;1.388;2023-11-19T13:05:43;100540.97;;;20.38;53.48
24234;BME280;12365;43.554;1.388;2023-11-19T13:08:09;100532.97;;;20.34;53.32
24234;BME280;12365;43.554;1.388;2023-11-19T13:10:52;100541.81;;;20.35;53.27